Time;durP1;ratioP1;P1;durP2;ratioP2;P2;SDS_P1;SDS_P2;PMS_P1;PMS_P2;Temp;Humidity;BMP_temperature;BMP_pressure;BME280_temperature;BME280_humidity;BME280_pressure;Samples;Min_cycle;Max_cycle;Signal;HPM_P1;HPM_P2
2020/12/11 00:00:44;;;;;;;67.13;29.20;;;0.00;99.90;;;-2.47;100.00;99570.56;5028167;27;100817;-61
2020/12/11 00:03:10;;;;;;;68.60;28.47;;;0.00;99.90;;;-2.47;100.00;99569.75;5028954;27;100725;-61
2020/12/11 00:05:36;;;;;;;60.00;26.70;;;0.10;99.90;;;-2.47;100.00;99567.94;5028623;27;99980;-62
2020/12/11 00:08:04;;;;;;;65.87;29.90;;;0.00;99.90;;;-2.49;100.00;99572.47;5027042;27;100177;-63
2020/12/11 00:10:31;;;;;;;67.17;28.33;;;0.00;99.90;;;-2.47;100.00;99564.53;5029218;27;100242;-62
2020/12/11 00:12:57;;;;;;;61.50;26.87;;;0.10;99.90;;;-2.48;100.00;99560.22;5020861;27;100699;-62
2020/12/11 00:15:23;;;;;;;65.40;27.40;;;0.10;99.90;;;-2.49;100.00;99555.91;5009176;27;100325;-62
2020/12/11 00:17:50;;;;;;;59.93;28.07;;;0.10;99.90;;;-2.48;100.00;99558.44;5008355;27;100014;-63
2020/12/11 00:20:16;;;;;;;60.47;28.03;;;0.30;99.90;;;-2.45;100.00;99547.75;5008168;27;100498;-61
2020/12/11 00:22:43;;;;;;;67.90;28.53;;;0.00;99.90;;;-2.45;100.00;99552.16;5005945;27;103194;-63
2020/12/11 00:25:10;;;;;;;63.37;29.57;;;0.10;99.90;;;-2.47;100.00;99552.25;5008667;27;100160;-62
2020/12/11 00:27:36;;;;;;;63.53;29.30;;;0.00;99.90;;;-2.42;100.00;99544.09;5008330;27;100178;-62
2020/12/11 00:30:04;;;;;;;61.20;27.47;;;0.00;99.90;;;-2.34;100.00;99552.31;5008183;27;101245;-62
2020/12/11 00:32:31;;;;;;;67.97;31.03;;;0.10;99.90;;;-2.44;100.00;99546.81;5008311;27;100474;-62
2020/12/11 00:34:57;;;;;;;61.33;26.40;;;0.10;99.90;;;-2.46;100.00;99543.44;5008053;27;100095;-61
2020/12/11 00:37:25;;;;;;;60.37;28.63;;;0.10;99.90;;;-2.39;100.00;99541.31;5009027;27;100223;-62
2020/12/11 00:39:51;;;;;;;62.67;27.20;;;0.20;99.90;;;-2.41;100.00;99544.03;5007857;27;100776;-62
2020/12/11 00:42:20;;;;;;;61.60;28.37;;;0.20;99.90;;;-2.42;100.00;99542.31;5028014;27;100311;-62
2020/12/11 00:44:47;;;;;;;68.17;29.30;;;0.10;99.90;;;-2.35;100.00;99540.19;5025074;27;100136;-62
2020/12/11 00:47:14;;;;;;;63.93;28.33;;;0.20;99.90;;;-2.38;100.00;99541.22;5028133;27;100048;-62
2020/12/11 00:49:43;;;;;;;56.20;27.57;;;0.30;99.90;;;-2.37;100.00;99536.81;5026051;27;102933;-62
2020/12/11 00:52:10;;;;;;;61.27;25.80;;;0.40;99.90;;;-2.39;100.00;99530.81;5024997;27;102713;-63
2020/12/11 00:54:43;;;;;;;59.30;26.53;;;0.40;99.90;;;-2.40;100.00;99531.75;5025774;27;100199;-62
2020/12/11 00:57:09;;;;;;;54.60;26.53;;;0.40;99.90;;;-2.42;100.00;99531.84;5028462;27;100133;-62
2020/12/11 00:59:36;;;;;;;63.30;27.80;;;0.30;99.90;;;-2.36;100.00;99531.50;5015719;27;100618;-63
2020/12/11 01:02:03;;;;;;;48.50;21.53;;;0.40;99.90;;;-2.40;100.00;99523.91;5008108;27;100593;-62
2020/12/11 01:04:30;;;;;;;60.67;28.00;;;0.30;99.90;;;-2.36;100.00;99520.16;5007971;27;100110;-62
2020/12/11 01:06:56;;;;;;;51.30;25.27;;;0.40;99.90;;;-2.30;100.00;99523.22;5007925;27;100372;-63
2020/12/11 01:09:22;;;;;;;57.20;27.97;;;-0.50;99.90;;;-2.33;100.00;99519.94;5020770;27;101093;-62
2020/12/11 01:11:49;;;;;;;67.37;28.37;;;0.20;99.90;;;-2.35;100.00;99522.66;5027294;27;101396;-64
2020/12/11 01:14:15;;;;;;;53.70;27.43;;;0.30;99.90;;;-2.37;100.00;99521.09;5028423;27;99948;-62
2020/12/11 01:16:44;;;;;;;62.80;28.13;;;0.30;99.90;;;-2.28;100.00;99526.59;5027702;27;100236;-62
2020/12/11 01:19:11;;;;;;;56.70;28.63;;;0.40;99.90;;;-2.27;100.00;99530.06;5027844;27;100873;-62
2020/12/11 01:21:37;;;;;;;60.00;26.90;;;0.40;99.90;;;-2.33;100.00;99522.56;5025967;27;100226;-62
2020/12/11 01:24:03;;;;;;;65.83;29.03;;;0.30;99.90;;;-2.29;100.00;99524.91;5027602;27;100039;-61
2020/12/11 01:26:30;;;;;;;62.77;28.63;;;0.30;99.90;;;-2.29;100.00;99524.06;5027397;27;100112;-63
2020/12/11 01:28:56;;;;;;;61.30;28.13;;;0.40;99.90;;;-2.26;100.00;99511.63;5027564;27;100564;-62
2020/12/11 01:31:23;;;;;;;60.33;28.60;;;0.30;99.90;;;-2.28;100.00;99518.75;5026978;27;101122;-62
2020/12/11 01:33:50;;;;;;;68.07;30.23;;;0.40;99.90;;;-2.25;100.00;99522.94;5027440;27;100233;-62
2020/12/11 01:36:24;;;;;;;60.90;28.43;;;0.40;99.90;;;-2.19;100.00;99509.44;5027602;27;100473;-62
2020/12/11 01:38:50;;;;;;;60.33;27.43;;;0.40;99.90;;;-2.15;100.00;99510.94;5018564;27;101491;-62
2020/12/11 01:41:18;;;;;;;58.70;27.43;;;0.50;99.90;;;-2.18;100.00;99509.34;5007095;27;100734;-62
2020/12/11 01:43:44;;;;;;;57.33;25.70;;;0.50;99.90;;;-2.13;100.00;99509.06;5007769;27;100089;-62
2020/12/11 01:46:15;;;;;;;58.17;27.97;;;0.60;99.90;;;-2.12;100.00;99508.13;5007211;27;100090;-62
2020/12/11 01:48:43;;;;;;;63.37;27.43;;;0.50;99.90;;;-2.20;100.00;99505.97;5011402;27;100885;-62
2020/12/11 01:51:11;;;;;;;68.17;28.60;;;0.60;99.90;;;-2.18;100.00;99508.50;5027482;27;101104;-62
2020/12/11 01:53:41;;;;;;;57.03;27.47;;;0.70;99.90;;;-2.18;100.00;99506.72;5042470;27;100473;-62
2020/12/11 01:56:11;;;;;;;56.73;26.63;;;0.70;99.90;;;-2.20;100.00;99503.38;5026852;27;100103;-62
2020/12/11 01:58:40;;;;;;;55.53;26.63;;;0.60;99.90;;;-2.25;100.00;99502.84;5026110;27;101048;-62
2020/12/11 02:01:09;;;;;;;61.37;29.20;;;-0.20;99.90;;;-2.20;100.00;99498.13;5026624;27;101030;-62
2020/12/11 02:03:37;;;;;;;64.53;27.33;;;0.60;99.90;;;-2.23;100.00;99500.97;5016160;27;99862;-62
2020/12/11 02:06:04;;;;;;;61.20;28.13;;;0.70;99.90;;;-2.26;100.00;99492.44;5006923;27;99973;-62
2020/12/11 02:08:31;;;;;;;58.70;27.13;;;0.40;99.90;;;-2.25;100.00;99494.13;5006763;27;100905;-62
2020/12/11 02:10:57;;;;;;;60.33;28.23;;;0.60;99.90;;;-2.21;100.00;99498.22;5008626;27;100559;-62
2020/12/11 02:13:24;;;;;;;57.10;29.50;;;0.10;99.90;;;-2.17;100.00;99497.94;5025004;27;99982;-62
2020/12/11 02:15:50;;;;;;;57.43;26.60;;;0.40;99.90;;;-2.16;100.00;99498.78;5027616;27;99803;-62
2020/12/11 02:18:17;;;;;;;66.90;29.03;;;0.40;99.90;;;-2.17;100.00;99497.09;5008245;27;101266;-62
2020/12/11 02:20:44;;;;;;;65.03;29.13;;;0.50;99.90;;;-2.16;100.00;99488.28;5006024;27;100806;-62
2020/12/11 02:23:11;;;;;;;57.33;27.13;;;0.50;99.90;;;-2.13;100.00;99489.88;5006271;27;99894;-63
2020/12/11 02:25:42;;;;;;;62.33;29.03;;;0.50;99.90;;;-2.15;100.00;99497.00;5006985;27;100006;-64
2020/12/11 02:28:09;;;;;;;65.13;28.50;;;0.50;99.90;;;-2.17;100.00;99489.22;5006074;27;101161;-60
2020/12/11 02:30:35;;;;;;;58.93;27.17;;;0.40;99.90;;;-2.19;100.00;99481.47;5006314;27;101432;-63
2020/12/11 02:33:01;;;;;;;61.40;27.67;;;0.40;99.90;;;-2.17;100.00;99482.22;5006923;27;100139;-62
2020/12/11 02:35:28;;;;;;;64.33;27.40;;;0.50;99.90;;;-2.13;100.00;99476.78;5006316;27;100086;-60
2020/12/11 02:37:54;;;;;;;66.53;27.90;;;0.50;99.90;;;-2.10;100.00;99476.59;5007926;27;101290;-61
2020/12/11 02:40:21;;;;;;;68.63;29.03;;;0.40;99.90;;;-2.13;100.00;99480.25;5027202;27;100651;-61
2020/12/11 02:42:48;;;;;;;62.37;26.23;;;0.50;99.90;;;-2.11;100.00;99478.38;5026929;27;100071;-61
2020/12/11 02:45:14;;;;;;;65.27;27.37;;;0.50;99.90;;;-2.13;100.00;99466.28;5016378;27;100119;-61
2020/12/11 02:47:41;;;;;;;61.67;27.37;;;0.40;99.90;;;-2.11;100.00;99469.66;5004868;27;102422;-63
2020/12/11 02:50:07;;;;;;;59.40;26.13;;;0.40;99.90;;;-2.13;100.00;99472.38;5005926;27;100309;-62
2020/12/11 02:52:34;;;;;;;57.33;26.73;;;0.40;99.90;;;-2.10;100.00;99463.50;5006607;27;100216;-63
2020/12/11 02:55:00;;;;;;;62.07;27.77;;;0.50;99.90;;;-2.09;100.00;99460.75;5007844;27;100203;-63
2020/12/11 02:57:28;;;;;;;55.87;26.30;;;0.30;99.90;;;-2.07;100.00;99458.03;5006336;27;100601;-63
2020/12/11 02:59:54;;;;;;;62.33;28.70;;;0.30;99.90;;;-2.06;100.00;99455.31;5005759;27;100668;-62
2020/12/11 03:02:20;;;;;;;65.13;29.13;;;0.40;99.90;;;-2.04;100.00;99452.59;5006319;27;100367;-63
2020/12/11 03:04:47;;;;;;;63.27;28.73;;;0.30;99.90;;;-2.08;100.00;99453.72;5006202;27;99976;-62
2020/12/11 03:07:13;;;;;;;67.93;29.23;;;0.60;99.90;;;-2.08;100.00;99448.47;5005276;27;101441;-62
2020/12/11 03:09:40;;;;;;;57.77;27.07;;;0.40;99.90;;;-2.07;100.00;99448.38;5005718;27;100514;-62
2020/12/11 03:12:06;;;;;;;64.87;28.30;;;-0.70;99.90;;;-2.06;100.00;99446.59;5007987;27;100155;-62
2020/12/11 03:14:33;;;;;;;60.00;28.73;;;0.50;99.90;;;-2.05;100.00;99443.88;5027194;27;100186;-62
2020/12/11 03:17:00;;;;;;;66.13;28.27;;;0.50;99.90;;;-1.96;100.00;99438.03;5029100;27;100841;-63
2020/12/11 03:19:26;;;;;;;62.87;28.67;;;0.60;99.90;;;-2.00;100.00;99433.97;5029942;27;100104;-63
2020/12/11 03:21:53;;;;;;;59.50;27.80;;;0.70;99.90;;;-1.98;100.00;99426.81;5030076;27;100145;-63
2020/12/11 03:24:19;;;;;;;57.40;27.17;;;0.70;99.90;;;-2.05;100.00;99424.69;5029187;27;100083;-63
2020/12/11 03:26:45;;;;;;;61.27;27.37;;;0.60;99.90;;;-2.02;100.00;99425.34;5029543;27;100673;-63
2020/12/11 03:29:12;;;;;;;58.67;27.67;;;0.60;99.90;;;-2.04;100.00;99416.72;5029755;27;101055;-62
2020/12/11 03:31:39;;;;;;;60.20;29.00;;;0.50;99.90;;;-2.06;100.00;99423.84;5028013;27;100226;-62
2020/12/11 03:34:05;;;;;;;60.83;27.70;;;0.50;99.90;;;-2.06;100.00;99416.00;5029510;27;100101;-62
2020/12/11 03:36:32;;;;;;;59.70;27.60;;;0.50;99.90;;;-2.02;100.00;99421.88;5028163;27;101414;-62
2020/12/11 03:38:58;;;;;;;53.50;27.50;;;0.50;99.90;;;-2.04;100.00;99416.72;5015889;27;100762;-62
2020/12/11 03:41:25;;;;;;;63.20;28.53;;;0.60;99.90;;;-2.04;100.00;99416.72;5024734;27;100149;-62
2020/12/11 03:43:51;;;;;;;63.67;29.23;;;0.40;99.90;;;-2.04;100.00;99405.41;5029395;27;100223;-63
2020/12/11 03:46:18;;;;;;;57.37;28.37;;;0.50;99.90;;;-1.98;100.00;99397.97;5029243;27;100836;-62
2020/12/11 03:48:47;;;;;;;55.23;25.53;;;0.60;99.90;;;-1.99;100.00;99398.94;5028623;27;101978;-62
2020/12/11 03:51:18;;;;;;;55.13;26.17;;;0.50;99.90;;;-2.03;100.00;99397.44;5029743;27;100056;-63
2020/12/11 03:53:45;;;;;;;50.70;26.37;;;0.40;99.90;;;-1.91;100.00;99390.56;5029325;27;99915;-63
2020/12/11 03:56:14;;;;;;;57.93;27.43;;;0.50;99.90;;;-1.99;100.00;99390.22;5008545;27;101503;-62
2020/12/11 03:58:41;;;;;;;61.90;29.00;;;0.50;99.90;;;-2.00;100.00;99391.16;5007782;27;100358;-62
2020/12/11 04:01:09;;;;;;;61.57;28.80;;;0.50;99.90;;;-2.02;100.00;99393.88;5012504;27;99966;-62
2020/12/11 04:03:36;;;;;;;64.13;28.30;;;0.60;99.90;;;-1.94;100.00;99393.38;5029212;27;100036;-62
2020/12/11 04:06:06;;;;;;;64.33;29.43;;;0.50;99.90;;;-1.94;100.00;99394.22;5022453;27;101271;-63
2020/12/11 04:08:33;;;;;;;55.93;27.47;;;0.60;99.90;;;-1.95;100.00;99391.69;5008612;27;100040;-62
2020/12/11 04:11:04;;;;;;;66.80;29.60;;;0.60;99.90;;;-1.92;100.00;99394.94;5008668;27;100124;-62
2020/12/11 04:13:30;;;;;;;67.20;29.70;;;0.60;99.90;;;-1.88;100.00;99393.81;5009000;27;100057;-62
2020/12/11 04:15:57;;;;;;;55.37;27.87;;;0.60;99.90;;;-1.93;100.00;99390.66;5008540;27;100634;-62
2020/12/11 04:18:23;;;;;;;60.30;29.00;;;-0.30;99.90;;;-1.91;100.00;99394.03;5008890;27;101309;-62
2020/12/11 04:20:50;;;;;;;62.27;29.23;;;0.80;99.90;;;-1.87;100.00;99389.41;5008609;27;100104;-62
2020/12/11 04:23:17;;;;;;;63.73;28.23;;;0.70;99.90;;;-1.87;100.00;99385.00;5008916;27;100110;-62
2020/12/11 04:25:43;;;;;;;68.77;30.03;;;0.80;99.90;;;-1.91;100.00;99390.56;5007641;27;100934;-62
2020/12/11 04:28:10;;;;;;;67.80;27.87;;;0.80;99.90;;;-1.87;100.00;99392.88;5008451;27;100636;-62
2020/12/11 04:30:36;;;;;;;56.60;27.17;;;0.80;99.90;;;-1.89;100.00;99384.28;5008204;27;100100;-61
2020/12/11 04:33:03;;;;;;;62.23;26.97;;;0.90;99.90;;;-1.91;100.00;99382.69;5008324;27;100022;-63
2020/12/11 04:35:29;;;;;;;67.00;29.93;;;1.60;99.90;;;-1.95;100.00;99378.56;5025787;27;100803;-62
2020/12/11 04:37:55;;;;;;;59.83;27.10;;;0.80;99.90;;;-1.98;100.00;99374.38;5028763;27;100241;-62
2020/12/11 04:40:23;;;;;;;61.77;28.37;;;0.80;99.90;;;-1.95;100.00;99378.56;5028598;27;100348;-63
2020/12/11 04:42:52;;;;;;;60.20;30.77;;;0.60;99.90;;;-1.97;100.00;99376.06;5029160;27;100280;-62
2020/12/11 04:45:18;;;;;;;63.43;29.43;;;0.70;99.90;;;-1.98;100.00;99373.56;5027847;27;100844;-62
2020/12/11 04:47:46;;;;;;;63.13;29.87;;;1.70;99.90;;;-2.00;100.00;99372.81;5028142;27;100571;-62
2020/12/11 04:50:15;;;;;;;63.10;28.10;;;0.60;99.90;;;-2.01;100.00;99368.50;5028068;27;99975;-62
2020/12/11 04:52:46;;;;;;;67.87;29.13;;;0.70;99.90;;;-2.03;100.00;99362.53;5028809;27;99987;-62
2020/12/11 04:55:14;;;;;;;63.13;28.37;;;0.50;99.90;;;-2.01;100.00;99365.91;5025556;27;101434;-62
2020/12/11 04:57:46;;;;;;;57.87;27.20;;;0.50;99.90;;;-2.02;100.00;99358.97;5007940;27;99895;-62
2020/12/11 05:00:14;;;;;;;63.57;26.23;;;0.80;99.90;;;-2.04;100.00;99353.81;5007404;27;100139;-62
2020/12/11 05:02:42;;;;;;;62.37;29.63;;;0.40;99.90;;;-2.01;100.00;99358.03;5020685;27;99956;-62
2020/12/11 05:05:09;;;;;;;67.13;30.63;;;0.50;99.90;;;-2.03;100.00;99345.03;5026817;27;101578;-64
2020/12/11 05:07:36;;;;;;;62.03;28.03;;;0.50;99.90;;;-2.00;100.00;99343.97;5008019;27;100554;-63
2020/12/11 05:10:04;;;;;;;66.10;29.60;;;0.30;99.90;;;-2.00;100.00;99334.34;5007912;27;100261;-62
2020/12/11 05:12:31;;;;;;;55.70;24.17;;;1.10;99.90;;;-2.03;100.00;99333.69;5008087;27;99930;-62
2020/12/11 05:15:01;;;;;;;65.73;29.77;;;0.50;99.90;;;-2.06;100.00;99326.03;5006573;27;101564;-64
2020/12/11 05:17:29;;;;;;;66.73;29.93;;;0.50;99.90;;;-2.09;100.00;99327.06;5007876;27;100809;-63
2020/12/11 05:19:57;;;;;;;61.40;29.60;;;0.50;99.90;;;-2.08;100.00;99320.88;5007792;27;100164;-63
2020/12/11 05:22:26;;;;;;;58.73;27.53;;;0.50;99.90;;;-2.10;100.00;99312.28;5007954;27;100107;-61
2020/12/11 05:24:56;;;;;;;67.87;28.20;;;0.50;99.90;;;-2.11;100.00;99313.25;5006227;27;100907;-64
2020/12/11 05:27:42;;;;;;;65.40;29.63;;;0.40;99.90;;;-2.10;100.00;99306.22;5016323;27;101259;-61
2020/12/11 05:30:24;;;;;;;61.60;24.40;;;1.00;99.90;;;-2.12;100.00;99313.34;5018715;27;100265;-61
2020/12/11 05:32:54;;;;;;;71.10;31.00;;;0.40;99.90;;;-2.11;100.00;99317.66;5008312;27;100122;-61
2020/12/11 05:35:27;;;;;;;64.73;28.73;;;0.30;99.90;;;-2.12;100.00;99314.19;5006479;27;101474;-63
2020/12/11 05:37:58;;;;;;;62.87;25.10;;;0.20;99.90;;;-2.15;100.00;99311.75;5006670;27;101415;-61
2020/12/11 05:40:29;;;;;;;55.97;26.37;;;0.30;99.90;;;-2.17;100.00;99305.78;5010568;27;99921;-62
2020/12/11 05:43:11;;;;;;;53.47;26.00;;;0.30;99.90;;;-2.18;100.00;99299.69;5008108;27;100270;-61
2020/12/11 05:45:40;;;;;;;51.00;21.07;;;0.20;99.90;;;-2.25;100.00;99292.34;5006952;27;99958;-62
2020/12/11 05:48:07;;;;;;;60.03;27.70;;;0.20;99.90;;;-2.23;100.00;99282.63;5006865;27;101307;-62
2020/12/11 05:50:36;;;;;;;56.17;25.87;;;0.20;99.90;;;-2.25;100.00;99284.50;5007264;27;100098;-60
2020/12/11 05:53:02;;;;;;;61.67;28.40;;;0.20;99.90;;;-2.29;100.00;99289.09;5007564;27;99917;-62
2020/12/11 05:55:29;;;;;;;58.13;23.00;;;0.10;99.90;;;-2.31;100.00;99290.97;5018586;27;101273;-61
2020/12/11 05:57:57;;;;;;;63.97;29.50;;;0.00;99.90;;;-2.27;100.00;99284.59;5026915;27;100805;-63
2020/12/11 06:00:24;;;;;;;62.23;29.43;;;0.00;99.90;;;-2.23;100.00;99275.59;5026757;27;100110;-61
2020/12/11 06:02:54;;;;;;;71.53;30.43;;;0.10;99.90;;;-2.23;100.00;99277.38;5028173;27;99927;-62
2020/12/11 06:05:22;;;;;;;64.97;28.43;;;0.00;99.90;;;-2.27;100.00;99276.72;5026267;27;100524;-61
2020/12/11 06:07:50;;;;;;;58.43;25.77;;;0.00;99.90;;;-2.35;100.00;99279.00;5026919;27;101019;-60
2020/12/11 06:10:20;;;;;;;58.20;24.13;;;0.10;99.90;;;-2.35;100.00;99281.63;5027360;27;100171;-61
2020/12/11 06:12:47;;;;;;;61.97;29.53;;;0.10;99.90;;;-2.37;100.00;99287.94;5027142;27;100008;-61
2020/12/11 06:15:28;;;;;;;65.40;28.10;;;0.10;99.90;;;-2.33;100.00;99282.38;5027950;27;100916;-61
2020/12/11 06:18:03;;;;;;;60.13;25.87;;;0.00;99.90;;;-2.38;100.00;99278.38;5026730;27;100979;-61
2020/12/11 06:20:30;;;;;;;60.50;27.47;;;0.10;99.90;;;-2.37;100.00;99288.78;5027501;27;100295;-61
2020/12/11 06:23:24;;;;;;;57.43;25.90;;;0.10;99.90;;;-2.40;100.00;99288.97;5027837;27;100157;-61
2020/12/11 06:25:53;;;;;;;48.93;18.93;;;0.00;99.90;;;-2.41;100.00;99292.53;5006447;27;101021;-61
2020/12/11 06:28:44;;;;;;;48.20;21.53;;;0.10;99.90;;;-2.39;100.00;99281.94;5006677;27;100277;-61
2020/12/11 06:31:13;;;;;;;43.70;19.80;;;0.00;99.90;;;-2.38;100.00;99287.09;5024707;27;100057;-61
2020/12/11 06:33:45;;;;;;;70.70;29.33;;;0.00;99.90;;;-2.38;100.00;99288.88;5027132;27;100203;-61
2020/12/11 06:36:13;;;;;;;59.83;26.20;;;0.00;99.90;;;-2.38;100.00;99286.25;5025576;27;101660;-61
2020/12/11 06:38:45;;;;;;;63.97;27.13;;;-0.20;99.90;;;-2.36;100.00;99287.84;5027018;27;100312;-61
2020/12/11 06:41:13;;;;;;;67.20;28.17;;;0.00;99.90;;;-2.27;100.00;99286.38;5026140;27;100448;-60
2020/12/11 06:43:42;;;;;;;64.47;26.90;;;0.00;99.90;;;-2.35;100.00;99286.84;5027204;27;100251;-61
2020/12/11 06:46:18;;;;;;;66.47;28.37;;;0.10;99.90;;;-2.33;100.00;99287.59;5021631;27;101821;-62
2020/12/11 06:49:11;;;;;;;63.00;29.10;;;0.10;99.90;;;-2.24;100.00;99291.41;5005420;27;100389;-61
2020/12/11 06:52:12;;;;;;;66.17;29.20;;;0.10;99.90;;;-2.26;100.00;99293.28;5007053;27;100247;-61
2020/12/11 06:54:53;;;;;;;50.17;22.50;;;0.20;99.90;;;-2.29;100.00;99285.63;5008079;27;100163;-61
2020/12/11 06:57:45;;;;;;;68.57;29.80;;;1.20;99.90;;;-2.25;100.00;99293.19;5006904;27;100173;-62
2020/12/11 07:00:51;;;;;;;72.10;29.90;;;0.10;99.90;;;-2.18;100.00;99283.97;5007109;27;100307;-61
2020/12/11 07:03:26;;;;;;;75.27;30.50;;;0.20;99.90;;;-2.20;100.00;99285.00;5007901;27;100009;-60
2020/12/11 07:06:10;;;;;;;65.57;28.87;;;0.10;99.90;;;-2.19;100.00;99287.53;5007373;27;100048;-61
2020/12/11 07:08:37;;;;;;;63.83;29.13;;;0.20;99.90;;;-2.19;100.00;99286.69;5007476;27;100949;-61
2020/12/11 07:11:12;;;;;;;67.80;31.33;;;0.30;99.90;;;-2.19;100.00;99281.44;5025040;27;100265;-61
2020/12/11 07:13:51;;;;;;;67.00;27.67;;;0.20;99.90;;;-2.17;100.00;99282.19;5011245;27;100138;-61
2020/12/11 07:16:19;;;;;;;71.90;32.20;;;0.30;99.90;;;-2.13;100.00;99275.81;5007787;27;100229;-60
2020/12/11 07:18:47;;;;;;;80.90;33.53;;;0.20;99.90;;;-2.13;100.00;99273.19;5007082;27;101783;-62
2020/12/11 07:21:15;;;;;;;72.37;30.47;;;0.20;99.90;;;-2.08;100.00;99276.31;5027158;27;101794;-60
2020/12/11 07:23:41;;;;;;;62.40;30.20;;;0.30;99.90;;;-2.07;100.00;99269.31;5027867;27;100439;-61
2020/12/11 07:26:08;;;;;;;73.37;31.90;;;1.20;99.90;;;-2.08;100.00;99268.47;5026755;27;100219;-60
2020/12/11 07:28:35;;;;;;;67.20;32.27;;;0.40;99.90;;;-2.06;100.00;99265.75;5027460;27;101183;-61
2020/12/11 07:31:02;;;;;;;68.83;29.77;;;0.40;99.90;;;-2.05;100.00;99264.81;5027500;27;100666;-60
2020/12/11 07:33:33;;;;;;;73.13;31.87;;;0.30;99.90;;;-1.96;100.00;99267.63;5010513;27;99978;-61
2020/12/11 07:36:02;;;;;;;71.90;30.17;;;0.50;99.90;;;-1.96;100.00;99275.50;5006675;27;100634;-62
2020/12/11 07:38:30;;;;;;;65.33;30.50;;;0.40;99.90;;;-1.96;100.00;99269.41;5007810;27;101375;-61
2020/12/11 07:40:59;;;;;;;66.93;30.10;;;0.50;99.90;;;-1.99;100.00;99267.88;5007978;27;100651;-62
2020/12/11 07:43:26;;;;;;;67.73;29.70;;;0.70;99.90;;;-1.95;100.00;99260.59;5007089;27;100010;-62
2020/12/11 07:45:52;;;;;;;75.60;32.03;;;0.70;99.90;;;-1.97;100.00;99252.84;5006758;27;100106;-61
2020/12/11 07:48:19;;;;;;;72.47;31.83;;;0.60;99.90;;;-1.97;100.00;99255.47;5005622;27;101583;-59
2020/12/11 07:50:46;;;;;;;67.27;30.63;;;0.80;99.90;;;-1.84;100.00;99242.34;5006318;27;100563;-61
2020/12/11 07:53:20;;;;;;;66.37;31.50;;;0.60;99.90;;;-1.84;100.00;99253.69;5007166;27;100109;-61
2020/12/11 07:55:47;;;;;;;72.57;32.47;;;1.00;99.90;;;-1.88;100.00;99252.25;5006306;27;100042;-62
2020/12/11 07:58:14;;;;;;;74.20;32.73;;;0.80;99.90;;;-1.78;100.00;99254.22;5005586;27;101866;-62
2020/12/11 08:00:40;;;;;;;71.80;32.50;;;0.80;99.90;;;-1.84;100.00;99248.44;5004933;27;101202;-63
2020/12/11 08:03:08;;;;;;;75.70;34.47;;;0.90;99.90;;;-1.81;100.00;99252.63;5006203;27;100341;-61
2020/12/11 08:05:39;;;;;;;992.40;604.50;;;1.00;99.90;;;-1.81;100.00;99248.25;5006444;27;100100;-62
2020/12/11 08:08:07;;;;;;;182.50;128.27;;;0.90;99.90;;;-1.75;100.00;99240.91;5011693;27;100631;-61
2020/12/11 08:10:40;;;;;;;74.90;33.27;;;0.90;99.90;;;-1.77;100.00;99254.13;5026225;27;100584;-61
2020/12/11 08:13:16;;;;;;;131.00;99.90;;;0.80;99.90;;;-1.67;100.00;99249.06;5024122;27;100277;-62
2020/12/11 08:15:45;;;;;;;161.03;86.43;;;0.90;99.90;;;-1.70;100.00;99254.53;5025963;27;100066;-62
2020/12/11 08:18:22;;;;;;;111.93;61.77;;;0.80;99.90;;;-1.72;100.00;99252.00;5025904;27;101571;-60
2020/12/11 08:20:55;;;;;;;104.20;70.30;;;0.90;99.90;;;-1.67;100.00;99254.31;5026352;27;100532;-60
2020/12/11 08:23:37;;;;;;;71.93;35.23;;;0.80;99.90;;;-1.63;100.00;99261.88;5026556;27;100098;-61
2020/12/11 08:26:13;;;;;;;87.90;43.67;;;1.00;99.90;;;-1.54;100.00;99260.38;5026589;27;100339;-61
2020/12/11 08:28:43;;;;;;;77.93;35.53;;;1.00;99.90;;;-1.49;100.00;99255.66;5026230;27;100834;-60
2020/12/11 08:31:25;;;;;;;74.30;36.00;;;1.10;99.90;;;-1.46;100.00;99258.06;5006514;27;100711;-62
2020/12/11 08:34:01;;;;;;;79.83;43.47;;;1.10;99.90;;;-1.46;100.00;99260.69;5006361;27;100199;-61
2020/12/11 08:36:30;;;;;;;78.67;34.40;;;1.10;99.90;;;-1.37;100.00;99248.72;5014678;27;100319;-61
2020/12/11 08:39:18;;;;;;;72.83;31.17;;;1.30;99.90;;;-1.22;100.00;99243.19;5025632;27;101386;-61
2020/12/11 08:42:16;;;;;;;74.53;37.93;;;1.40;99.90;;;-0.91;100.00;99235.75;5026068;27;100765;-61
2020/12/11 08:45:02;;;;;;;270.80;180.70;;;1.50;99.90;;;-0.96;100.00;99236.06;5019583;27;100027;-61
2020/12/11 08:50:27;;;;;;;111.20;68.80;;;1.90;99.90;;;-0.81;100.00;99228.88;4994958;27;100773;-61
2020/12/11 08:52:53;;;;;;;103.50;58.40;;;2.30;99.90;;;-0.73;100.00;99235.22;5006225;27;101576;-62
2020/12/11 08:55:21;;;;;;;68.07;33.73;;;2.40;99.90;;;-0.62;100.00;99234.47;5010663;27;100377;-61
2020/12/11 08:57:49;;;;;;;280.53;189.87;;;2.60;99.90;;;-0.76;100.00;99240.75;5012843;27;100151;-63
2020/12/11 09:00:18;;;;;;;310.20;232.33;;;2.50;99.90;;;-0.64;100.00;99228.50;5005718;27;100697;-61
2020/12/11 09:02:44;;;;;;;73.87;41.67;;;2.80;99.90;;;-0.75;100.00;99234.53;5005858;27;100495;-61
2020/12/11 09:05:11;;;;;;;65.27;30.37;;;2.90;99.90;;;-0.95;100.00;99236.91;5021098;27;100139;-61
2020/12/11 09:07:38;;;;;;;111.83;77.50;;;2.70;99.90;;;-0.83;100.00;99243.91;5026021;27;100312;-62
2020/12/11 09:10:06;;;;;;;85.47;52.60;;;2.80;99.90;;;-0.73;100.00;99240.50;5024679;27;101788;-61
2020/12/11 09:12:34;;;;;;;195.03;122.37;;;2.80;99.90;;;-0.87;100.00;99237.22;5024346;27;100697;-60
2020/12/11 09:15:01;;;;;;;182.53;128.30;;;2.70;99.90;;;-0.88;100.00;99241.63;5026093;27;100029;-62
2020/12/11 09:17:28;;;;;;;151.10;99.23;;;2.70;99.90;;;-0.79;100.00;99237.50;5025889;27;100180;-61
2020/12/11 09:19:54;;;;;;;80.13;40.50;;;2.70;99.90;;;-0.80;100.00;99239.28;5024976;27;101460;-61
2020/12/11 09:22:21;;;;;;;67.53;37.93;;;2.30;99.90;;;-0.88;100.00;99236.38;5025792;27;100854;-62
2020/12/11 09:24:47;;;;;;;83.40;42.93;;;2.40;99.90;;;-0.68;100.00;99228.81;5025504;27;100320;-61
2020/12/11 09:27:14;;;;;;;67.33;34.47;;;2.50;99.90;;;-0.78;100.00;99223.41;5026037;27;100139;-61
2020/12/11 09:29:43;;;;;;;65.50;31.53;;;2.60;99.90;;;-0.78;100.00;99218.16;5039161;27;101699;-61
2020/12/11 09:32:14;;;;;;;75.73;39.87;;;2.50;99.90;;;-0.68;100.00;99220.94;5015917;27;100669;-61
2020/12/11 09:34:41;;;;;;;71.17;36.33;;;2.50;99.90;;;-0.55;100.00;99219.06;5004726;27;100116;-60
2020/12/11 09:37:08;;;;;;;80.60;36.97;;;2.40;99.90;;;-0.56;100.00;99217.41;5004654;27;100264;-61
2020/12/11 09:39:34;;;;;;;86.13;43.03;;;2.60;99.90;;;-0.49;100.00;99215.97;5004665;27;101334;-61
2020/12/11 09:42:09;;;;;;;86.77;44.00;;;2.50;99.90;;;-0.56;100.00;99209.50;5004674;27;100914;-61
2020/12/11 09:44:51;;;;;;;105.97;60.93;;;2.50;99.90;;;-0.39;100.00;99206.47;5005098;27;100085;-60
2020/12/11 09:50:12;;;;;;;82.70;34.07;;;2.60;99.90;;;-0.47;100.00;99201.78;4993092;27;101943;-61
2020/12/11 09:52:50;;;;;;;74.83;35.90;;;2.50;99.90;;;-0.45;100.00;99202.50;5004524;27;101091;-61
2020/12/11 09:55:16;;;;;;;268.53;159.27;;;2.60;99.90;;;-0.42;100.00;99202.28;5005393;27;100220;-61
2020/12/11 09:57:43;;;;;;;210.43;128.77;;;2.70;99.90;;;-0.41;100.00;99198.69;5004962;27;100068;-62
2020/12/11 10:00:10;;;;;;;80.13;37.90;;;2.50;99.90;;;-0.40;100.00;99191.66;5012789;27;101943;-61
2020/12/11 10:02:53;;;;;;;82.30;37.13;;;2.60;99.90;;;-0.42;100.00;99190.94;5024675;27;101135;-61
2020/12/11 10:05:20;;;;;;;76.57;34.47;;;2.60;99.90;;;-0.36;100.00;99187.81;5014191;27;100187;-61
2020/12/11 10:07:47;;;;;;;79.17;37.00;;;2.70;99.90;;;-0.38;100.00;99182.72;5004964;27;100207;-61
2020/12/11 10:10:13;;;;;;;79.17;36.90;;;2.60;99.90;;;-0.31;100.00;99184.84;5003606;27;100646;-61
2020/12/11 10:12:40;;;;;;;73.10;35.23;;;2.50;99.90;;;-0.28;100.00;99176.75;5004380;27;100474;-62
2020/12/11 10:15:08;;;;;;;93.43;61.50;;;2.50;99.90;;;-0.17;100.00;99177.59;5004298;27;100223;-61